sensor_id;sensor_type;location;lat;lon;timestamp;P1;durP1;ratioP1;P2;durP2;ratioP2
9128;SDS011;4599;50.906;6.786;2023-11-19T00:01:45;2.00;;;0.70;;
9128;SDS011;4599;50.906;6.786;2023-11-19T00:05:46;5.63;;;0.93;;
9128;SDS011;4599;50.906;6.786;2023-11-19T00:09:48;2.03;;;0.50;;
9128;SDS011;4599;50.906;6.786;2023-11-19T00:13:50;0.60;;;0.60;;
9128;SDS011;4599;50.906;6.786;2023-11-19T00:17:53;2.30;;;0.67;;
9128;SDS011;4599;50.906;6.786;2023-11-19T00:21:54;3.23;;;0.53;;
9128;SDS011;4599;50.906;6.786;2023-11-19T00:25:56;1.30;;;0.53;;
9128;SDS011;4599;50.906;6.786;2023-11-19T00:29:57;4.13;;;0.60;;
9128;SDS011;4599;50.906;6.786;2023-11-19T00:34:00;1.43;;;0.47;;
9128;SDS011;4599;50.906;6.786;2023-11-19T00:38:02;0.77;;;0.60;;
9128;SDS011;4599;50.906;6.786;2023-11-19T00:42:03;2.53;;;0.50;;
9128;SDS011;4599;50.906;6.786;2023-11-19T00:46:06;0.60;;;0.47;;
9128;SDS011;4599;50.906;6.786;2023-11-19T00:50:10;1.07;;;0.50;;
9128;SDS011;4599;50.906;6.786;2023-11-19T00:54:11;0.30;;;0.30;;
9128;SDS011;4599;50.906;6.786;2023-11-19T00:58:13;1.30;;;0.57;;
9128;SDS011;4599;50.906;6.786;2023-11-19T01:02:15;0.50;;;0.50;;
9128;SDS011;4599;50.906;6.786;2023-11-19T01:06:27;1.20;;;0.70;;
9128;SDS011;4599;50.906;6.786;2023-11-19T01:10:29;0.63;;;0.60;;
9128;SDS011;4599;50.906;6.786;2023-11-19T01:14:30;1.23;;;0.60;;
9128;SDS011;4599;50.906;6.786;2023-11-19T01:18:32;1.23;;;0.57;;
9128;SDS011;4599;50.906;6.786;2023-11-19T01:22:35;1.33;;;0.53;;
9128;SDS011;4599;50.906;6.786;2023-11-19T01:26:36;0.90;;;0.60;;
9128;SDS011;4599;50.906;6.786;2023-11-19T01:30:38;3.77;;;1.00;;
9128;SDS011;4599;50.906;6.786;2023-11-19T01:34:40;0.97;;;0.80;;
9128;SDS011;4599;50.906;6.786;2023-11-19T01:38:43;1.33;;;0.70;;
9128;SDS011;4599;50.906;6.786;2023-11-19T01:42:44;2.37;;;1.03;;
9128;SDS011;4599;50.906;6.786;2023-11-19T01:46:46;2.30;;;1.20;;
9128;SDS011;4599;50.906;6.786;2023-11-19T01:50:48;2.47;;;1.03;;
9128;SDS011;4599;50.906;6.786;2023-11-19T01:54:51;3.07;;;1.20;;
9128;SDS011;4599;50.906;6.786;2023-11-19T01:58:54;3.40;;;1.20;;
9128;SDS011;4599;50.906;6.786;2023-11-19T02:02:56;5.90;;;1.37;;
9128;SDS011;4599;50.906;6.786;2023-11-19T02:06:58;4.63;;;1.43;;
9128;SDS011;4599;50.906;6.786;2023-11-19T02:11:02;5.53;;;1.10;;
9128;SDS011;4599;50.906;6.786;2023-11-19T02:15:04;4.53;;;1.40;;
9128;SDS011;4599;50.906;6.786;2023-11-19T02:19:06;2.60;;;1.30;;
9128;SDS011;4599;50.906;6.786;2023-11-19T02:23:07;5.80;;;1.43;;
9128;SDS011;4599;50.906;6.786;2023-11-19T02:27:12;5.30;;;1.50;;
9128;SDS011;4599;50.906;6.786;2023-11-19T02:31:23;6.17;;;1.60;;
9128;SDS011;4599;50.906;6.786;2023-11-19T02:35:25;12.30;;;1.43;;
9128;SDS011;4599;50.906;6.786;2023-11-19T02:39:27;8.53;;;1.67;;
9128;SDS011;4599;50.906;6.786;2023-11-19T02:43:29;7.53;;;1.60;;
9128;SDS011;4599;50.906;6.786;2023-11-19T02:47:31;7.97;;;1.40;;
9128;SDS011;4599;50.906;6.786;2023-11-19T02:51:34;8.60;;;1.60;;
9128;SDS011;4599;50.906;6.786;2023-11-19T02:55:36;7.50;;;2.00;;
9128;SDS011;4599;50.906;6.786;2023-11-19T02:59:38;7.17;;;2.03;;
9128;SDS011;4599;50.906;6.786;2023-11-19T03:03:42;7.30;;;2.00;;
9128;SDS011;4599;50.906;6.786;2023-11-19T03:07:44;9.13;;;2.00;;
9128;SDS011;4599;50.906;6.786;2023-11-19T03:11:46;7.97;;;1.80;;
9128;SDS011;4599;50.906;6.786;2023-11-19T03:15:48;9.30;;;2.00;;
9128;SDS011;4599;50.906;6.786;2023-11-19T03:19:51;10.33;;;2.00;;
9128;SDS011;4599;50.906;6.786;2023-11-19T03:23:52;11.03;;;2.10;;
9128;SDS011;4599;50.906;6.786;2023-11-19T03:27:54;10.07;;;2.10;;
9128;SDS011;4599;50.906;6.786;2023-11-19T03:31:55;11.43;;;2.00;;
9128;SDS011;4599;50.906;6.786;2023-11-19T03:35:58;11.53;;;2.30;;
9128;SDS011;4599;50.906;6.786;2023-11-19T03:40:00;9.10;;;2.23;;
9128;SDS011;4599;50.906;6.786;2023-11-19T03:44:03;11.67;;;2.20;;
9128;SDS011;4599;50.906;6.786;2023-11-19T03:48:05;13.87;;;2.00;;
9128;SDS011;4599;50.906;6.786;2023-11-19T03:52:08;9.70;;;2.00;;
9128;SDS011;4599;50.906;6.786;2023-11-19T03:56:20;12.87;;;2.17;;
9128;SDS011;4599;50.906;6.786;2023-11-19T04:00:21;15.87;;;2.87;;
9128;SDS011;4599;50.906;6.786;2023-11-19T04:04:23;10.43;;;2.23;;
9128;SDS011;4599;50.906;6.786;2023-11-19T04:08:26;9.80;;;2.30;;
9128;SDS011;4599;50.906;6.786;2023-11-19T04:12:27;13.43;;;2.30;;
9128;SDS011;4599;50.906;6.786;2023-11-19T04:16:29;9.77;;;1.93;;
9128;SDS011;4599;50.906;6.786;2023-11-19T04:20:31;11.67;;;2.40;;
9128;SDS011;4599;50.906;6.786;2023-11-19T04:24:33;16.13;;;2.53;;
9128;SDS011;4599;50.906;6.786;2023-11-19T04:28:35;12.10;;;2.70;;
9128;SDS011;4599;50.906;6.786;2023-11-19T04:32:37;14.20;;;3.13;;
9128;SDS011;4599;50.906;6.786;2023-11-19T04:36:38;13.37;;;3.00;;
9128;SDS011;4599;50.906;6.786;2023-11-19T04:40:41;16.60;;;3.10;;
9128;SDS011;4599;50.906;6.786;2023-11-19T04:44:43;12.20;;;2.40;;
9128;SDS011;4599;50.906;6.786;2023-11-19T04:48:45;9.57;;;2.43;;
9128;SDS011;4599;50.906;6.786;2023-11-19T04:52:46;12.23;;;2.40;;
9128;SDS011;4599;50.906;6.786;2023-11-19T04:56:49;8.13;;;2.13;;
9128;SDS011;4599;50.906;6.786;2023-11-19T05:00:51;14.73;;;2.67;;
9128;SDS011;4599;50.906;6.786;2023-11-19T05:04:53;16.70;;;2.70;;
9128;SDS011;4599;50.906;6.786;2023-11-19T05:08:54;14.40;;;2.70;;
9128;SDS011;4599;50.906;6.786;2023-11-19T05:12:57;13.63;;;2.33;;
9128;SDS011;4599;50.906;6.786;2023-11-19T05:16:59;18.03;;;2.70;;
9128;SDS011;4599;50.906;6.786;2023-11-19T05:21:01;14.70;;;3.33;;
9128;SDS011;4599;50.906;6.786;2023-11-19T05:25:03;15.80;;;2.80;;
9128;SDS011;4599;50.906;6.786;2023-11-19T05:29:06;19.57;;;3.20;;
9128;SDS011;4599;50.906;6.786;2023-11-19T05:33:08;20.00;;;3.33;;
9128;SDS011;4599;50.906;6.786;2023-11-19T05:37:09;17.50;;;3.10;;
9128;SDS011;4599;50.906;6.786;2023-11-19T05:41:11;17.93;;;3.40;;
9128;SDS011;4599;50.906;6.786;2023-11-19T05:45:14;15.23;;;2.73;;
9128;SDS011;4599;50.906;6.786;2023-11-19T05:49:15;15.87;;;2.97;;
9128;SDS011;4599;50.906;6.786;2023-11-19T05:53:17;15.87;;;3.10;;
9128;SDS011;4599;50.906;6.786;2023-11-19T05:57:19;16.43;;;3.17;;
9128;SDS011;4599;50.906;6.786;2023-11-19T06:01:22;16.83;;;3.30;;
9128;SDS011;4599;50.906;6.786;2023-11-19T06:05:25;17.30;;;3.10;;
9128;SDS011;4599;50.906;6.786;2023-11-19T06:09:26;16.47;;;2.93;;
9128;SDS011;4599;50.906;6.786;2023-11-19T06:13:28;19.53;;;3.20;;
9128;SDS011;4599;50.906;6.786;2023-11-19T06:17:31;19.93;;;3.40;;
9128;SDS011;4599;50.906;6.786;2023-11-19T06:21:32;17.40;;;3.10;;
9128;SDS011;4599;50.906;6.786;2023-11-19T06:25:34;29.73;;;4.57;;
9128;SDS011;4599;50.906;6.786;2023-11-19T06:29:35;20.73;;;4.30;;
9128;SDS011;4599;50.906;6.786;2023-11-19T06:33:38;17.00;;;4.37;;
9128;SDS011;4599;50.906;6.786;2023-11-19T06:37:40;15.47;;;3.10;;
9128;SDS011;4599;50.906;6.786;2023-11-19T06:41:44;18.50;;;3.53;;
9128;SDS011;4599;50.906;6.786;2023-11-19T06:45:46;24.40;;;3.67;;
9128;SDS011;4599;50.906;6.786;2023-11-19T06:49:48;20.53;;;3.37;;
9128;SDS011;4599;50.906;6.786;2023-11-19T06:53:50;19.90;;;3.70;;
9128;SDS011;4599;50.906;6.786;2023-11-19T06:57:52;19.07;;;4.00;;
9128;SDS011;4599;50.906;6.786;2023-11-19T07:01:53;22.37;;;3.47;;
9128;SDS011;4599;50.906;6.786;2023-11-19T07:05:56;18.40;;;3.77;;
9128;SDS011;4599;50.906;6.786;2023-11-19T07:09:58;16.63;;;3.73;;
9128;SDS011;4599;50.906;6.786;2023-11-19T07:14:00;16.87;;;3.90;;
9128;SDS011;4599;50.906;6.786;2023-11-19T07:18:01;19.03;;;4.30;;
9128;SDS011;4599;50.906;6.786;2023-11-19T07:22:05;16.90;;;3.23;;
9128;SDS011;4599;50.906;6.786;2023-11-19T07:26:07;22.63;;;3.70;;
9128;SDS011;4599;50.906;6.786;2023-11-19T07:30:09;16.13;;;3.20;;
9128;SDS011;4599;50.906;6.786;2023-11-19T07:34:10;16.43;;;3.37;;
9128;SDS011;4599;50.906;6.786;2023-11-19T07:38:13;24.93;;;4.43;;
9128;SDS011;4599;50.906;6.786;2023-11-19T07:42:15;18.73;;;4.10;;
9128;SDS011;4599;50.906;6.786;2023-11-19T07:46:17;25.50;;;4.33;;
9128;SDS011;4599;50.906;6.786;2023-11-19T07:50:18;22.40;;;4.33;;
9128;SDS011;4599;50.906;6.786;2023-11-19T07:54:21;25.67;;;4.70;;
9128;SDS011;4599;50.906;6.786;2023-11-19T07:58:23;24.40;;;4.03;;
9128;SDS011;4599;50.906;6.786;2023-11-19T08:02:24;19.80;;;3.97;;
9128;SDS011;4599;50.906;6.786;2023-11-19T08:06:26;18.67;;;3.40;;
9128;SDS011;4599;50.906;6.786;2023-11-19T08:10:30;18.20;;;3.80;;
9128;SDS011;4599;50.906;6.786;2023-11-19T08:14:31;19.60;;;3.60;;
9128;SDS011;4599;50.906;6.786;2023-11-19T08:18:33;20.10;;;3.50;;
9128;SDS011;4599;50.906;6.786;2023-11-19T08:22:35;17.83;;;3.30;;
9128;SDS011;4599;50.906;6.786;2023-11-19T08:26:38;20.17;;;3.93;;
9128;SDS011;4599;50.906;6.786;2023-11-19T08:30:40;17.10;;;3.40;;
9128;SDS011;4599;50.906;6.786;2023-11-19T08:34:41;22.60;;;4.30;;
9128;SDS011;4599;50.906;6.786;2023-11-19T08:38:43;20.10;;;4.00;;
9128;SDS011;4599;50.906;6.786;2023-11-19T08:42:46;23.20;;;3.93;;
9128;SDS011;4599;50.906;6.786;2023-11-19T08:46:48;20.70;;;4.13;;
9128;SDS011;4599;50.906;6.786;2023-11-19T08:50:49;22.37;;;3.80;;
9128;SDS011;4599;50.906;6.786;2023-11-19T08:54:51;16.13;;;3.70;;
9128;SDS011;4599;50.906;6.786;2023-11-19T08:58:54;24.47;;;3.40;;
9128;SDS011;4599;50.906;6.786;2023-11-19T09:02:55;16.07;;;3.43;;
9128;SDS011;4599;50.906;6.786;2023-11-19T09:06:57;19.87;;;4.23;;
9128;SDS011;4599;50.906;6.786;2023-11-19T09:10:58;18.87;;;3.60;;
9128;SDS011;4599;50.906;6.786;2023-11-19T09:15:01;17.63;;;3.90;;
9128;SDS011;4599;50.906;6.786;2023-11-19T09:19:03;19.67;;;4.43;;
9128;SDS011;4599;50.906;6.786;2023-11-19T09:23:07;25.13;;;4.47;;
9128;SDS011;4599;50.906;6.786;2023-11-19T09:27:08;16.80;;;4.17;;
9128;SDS011;4599;50.906;6.786;2023-11-19T09:31:15;25.53;;;4.63;;
9128;SDS011;4599;50.906;6.786;2023-11-19T09:35:17;18.67;;;3.63;;
9128;SDS011;4599;50.906;6.786;2023-11-19T09:39:18;21.17;;;3.87;;
9128;SDS011;4599;50.906;6.786;2023-11-19T09:43:20;17.77;;;4.10;;
9128;SDS011;4599;50.906;6.786;2023-11-19T09:47:23;16.57;;;3.73;;
9128;SDS011;4599;50.906;6.786;2023-11-19T09:51:26;21.40;;;3.87;;
9128;SDS011;4599;50.906;6.786;2023-11-19T09:55:28;15.57;;;3.43;;
9128;SDS011;4599;50.906;6.786;2023-11-19T09:59:30;21.97;;;4.30;;
9128;SDS011;4599;50.906;6.786;2023-11-19T10:03:34;20.40;;;4.40;;
9128;SDS011;4599;50.906;6.786;2023-11-19T10:07:36;23.47;;;4.50;;
9128;SDS011;4599;50.906;6.786;2023-11-19T10:11:38;21.97;;;3.40;;
9128;SDS011;4599;50.906;6.786;2023-11-19T10:15:39;16.90;;;3.40;;
9128;SDS011;4599;50.906;6.786;2023-11-19T10:19:43;19.57;;;3.77;;
9128;SDS011;4599;50.906;6.786;2023-11-19T10:23:47;16.93;;;3.93;;
9128;SDS011;4599;50.906;6.786;2023-11-19T10:27:49;18.90;;;3.90;;
9128;SDS011;4599;50.906;6.786;2023-11-19T10:31:55;16.77;;;3.93;;
9128;SDS011;4599;50.906;6.786;2023-11-19T10:35:58;17.73;;;3.83;;
9128;SDS011;4599;50.906;6.786;2023-11-19T10:40:03;16.20;;;3.20;;
9128;SDS011;4599;50.906;6.786;2023-11-19T10:44:05;21.13;;;3.80;;
9128;SDS011;4599;50.906;6.786;2023-11-19T10:48:07;15.47;;;3.87;;
9128;SDS011;4599;50.906;6.786;2023-11-19T10:52:10;21.33;;;3.47;;
9128;SDS011;4599;50.906;6.786;2023-11-19T10:56:12;17.07;;;3.77;;
9128;SDS011;4599;50.906;6.786;2023-11-19T11:00:17;22.83;;;4.13;;
9128;SDS011;4599;50.906;6.786;2023-11-19T11:04:24;20.37;;;3.90;;
9128;SDS011;4599;50.906;6.786;2023-11-19T11:08:27;18.70;;;3.57;;
9128;SDS011;4599;50.906;6.786;2023-11-19T11:12:31;15.53;;;3.30;;
9128;SDS011;4599;50.906;6.786;2023-11-19T11:16:37;16.13;;;3.70;;
9128;SDS011;4599;50.906;6.786;2023-11-19T11:20:43;17.13;;;3.30;;
9128;SDS011;4599;50.906;6.786;2023-11-19T11:24:53;17.20;;;3.23;;
9128;SDS011;4599;50.906;6.786;2023-11-19T11:29:09;17.83;;;3.10;;
9128;SDS011;4599;50.906;6.786;2023-11-19T11:33:21;20.27;;;3.17;;
9128;SDS011;4599;50.906;6.786;2023-11-19T11:37:33;17.93;;;3.63;;
9128;SDS011;4599;50.906;6.786;2023-11-19T11:41:41;15.63;;;2.97;;
9128;SDS011;4599;50.906;6.786;2023-11-19T11:45:42;13.70;;;2.87;;
9128;SDS011;4599;50.906;6.786;2023-11-19T11:49:44;15.10;;;3.27;;
9128;SDS011;4599;50.906;6.786;2023-11-19T11:53:47;18.27;;;2.97;;
9128;SDS011;4599;50.906;6.786;2023-11-19T11:57:50;12.77;;;3.37;;
9128;SDS011;4599;50.906;6.786;2023-11-19T12:01:57;11.63;;;2.83;;
9128;SDS011;4599;50.906;6.786;2023-11-19T12:05:59;15.00;;;3.27;;
9128;SDS011;4599;50.906;6.786;2023-11-19T12:10:05;14.27;;;2.70;;
9128;SDS011;4599;50.906;6.786;2023-11-19T12:14:09;9.17;;;2.57;;
9128;SDS011;4599;50.906;6.786;2023-11-19T12:18:11;17.80;;;3.10;;
9128;SDS011;4599;50.906;6.786;2023-11-19T12:22:20;19.33;;;3.63;;
9128;SDS011;4599;50.906;6.786;2023-11-19T12:26:30;19.43;;;3.70;;
9128;SDS011;4599;50.906;6.786;2023-11-19T12:30:35;15.37;;;2.97;;
9128;SDS011;4599;50.906;6.786;2023-11-19T12:34:37;12.27;;;2.57;;
9128;SDS011;4599;50.906;6.786;2023-11-19T12:38:39;10.73;;;2.93;;
9128;SDS011;4599;50.906;6.786;2023-11-19T12:42:42;14.03;;;3.00;;
9128;SDS011;4599;50.906;6.786;2023-11-19T12:46:45;12.37;;;2.50;;
9128;SDS011;4599;50.906;6.786;2023-11-19T12:50:50;9.97;;;2.60;;
9128;SDS011;4599;50.906;6.786;2023-11-19T12:54:52;14.70;;;2.67;;
9128;SDS011;4599;50.906;6.786;2023-11-19T12:58:53;9.37;;;2.47;;
9128;SDS011;4599;50.906;6.786;2023-11-19T13:02:56;11.00;;;2.93;;
9128;SDS011;4599;50.906;6.786;2023-11-19T13:07:00;15.50;;;2.83;;
9128;SDS011;4599;50.906;6.786;2023-11-19T13:11:05;14.23;;;3.00;;
9128;SDS011;4599;50.906;6.786;2023-11-19T13:15:08;17.27;;;3.10;;
9128;SDS011;4599;50.906;6.786;2023-11-19T13:19:25;13.30;;;2.83;;
9128;SDS011;4599;50.906;6.786;2023-11-19T13:23:26;15.70;;;3.23;;
9128;SDS011;4599;50.906;6.786;2023-11-19T13:27:28;13.87;;;3.07;;
9128;SDS011;4599;50.906;6.786;2023-11-19T13:31:29;20.90;;;3.50;;
9128;SDS011;4599;50.906;6.786;2023-11-19T13:35:33;15.33;;;3.23;;
9128;SDS011;4599;50.906;6.786;2023-11-19T13:39:34;13.47;;;3.97;;
9128;SDS011;4599;50.906;6.786;2023-11-19T13:43:36;17.00;;;3.63;;
9128;SDS011;4599;50.906;6.786;2023-11-19T13:47:38;16.07;;;3.47;;
9128;SDS011;4599;50.906;6.786;2023-11-19T13:51:41;16.97;;;3.43;;
9128;SDS011;4599;50.906;6.786;2023-11-19T13:55:43;14.77;;;3.20;;
9128;SDS011;4599;50.906;6.786;2023-11-19T13:59:44;14.63;;;3.53;;
9128;SDS011;4599;50.906;6.786;2023-11-19T14:03:46;13.00;;;3.23;;
9128;SDS011;4599;50.906;6.786;2023-11-19T14:07:49;16.03;;;3.20;;
9128;SDS011;4599;50.906;6.786;2023-11-19T14:11:50;19.03;;;3.37;;
9128;SDS011;4599;50.906;6.786;2023-11-19T14:15:53;14.87;;;3.00;;
9128;SDS011;4599;50.906;6.786;2023-11-19T14:19:55;14.53;;;2.87;;
9128;SDS011;4599;50.906;6.786;2023-11-19T14:23:58;16.00;;;2.60;;
9128;SDS011;4599;50.906;6.786;2023-11-19T14:27:59;10.43;;;2.60;;
9128;SDS011;4599;50.906;6.786;2023-11-19T14:32:03;14.60;;;3.00;;
9128;SDS011;4599;50.906;6.786;2023-11-19T14:36:05;14.57;;;2.97;;
9128;SDS011;4599;50.906;6.786;2023-11-19T14:40:08;14.10;;;2.87;;
9128;SDS011;4599;50.906;6.786;2023-11-19T14:44:11;14.73;;;3.33;;
9128;SDS011;4599;50.906;6.786;2023-11-19T14:48:13;14.17;;;3.43;;
9128;SDS011;4599;50.906;6.786;2023-11-19T14:52:14;11.63;;;2.80;;
9128;SDS011;4599;50.906;6.786;2023-11-19T14:56:19;16.03;;;3.40;;
9128;SDS011;4599;50.906;6.786;2023-11-19T15:00:21;16.30;;;3.10;;
9128;SDS011;4599;50.906;6.786;2023-11-19T15:04:23;14.53;;;3.20;;
9128;SDS011;4599;50.906;6.786;2023-11-19T15:08:25;13.07;;;2.80;;
9128;SDS011;4599;50.906;6.786;2023-11-19T15:12:28;15.10;;;3.30;;
9128;SDS011;4599;50.906;6.786;2023-11-19T15:16:30;14.07;;;2.90;;
9128;SDS011;4599;50.906;6.786;2023-11-19T15:20:32;13.17;;;2.97;;
9128;SDS011;4599;50.906;6.786;2023-11-19T15:24:33;10.17;;;2.87;;
9128;SDS011;4599;50.906;6.786;2023-11-19T15:28:36;14.13;;;3.43;;
9128;SDS011;4599;50.906;6.786;2023-11-19T15:32:38;16.03;;;3.70;;
9128;SDS011;4599;50.906;6.786;2023-11-19T15:36:40;15.63;;;2.97;;
9128;SDS011;4599;50.906;6.786;2023-11-19T15:40:41;15.10;;;3.03;;
9128;SDS011;4599;50.906;6.786;2023-11-19T15:44:44;19.30;;;3.33;;
9128;SDS011;4599;50.906;6.786;2023-11-19T15:48:46;15.13;;;3.03;;
9128;SDS011;4599;50.906;6.786;2023-11-19T15:52:47;16.43;;;2.90;;
9128;SDS011;4599;50.906;6.786;2023-11-19T15:56:49;15.43;;;3.30;;
9128;SDS011;4599;50.906;6.786;2023-11-19T16:00:51;13.63;;;3.20;;
9128;SDS011;4599;50.906;6.786;2023-11-19T16:04:53;14.53;;;3.10;;
9128;SDS011;4599;50.906;6.786;2023-11-19T16:08:54;18.03;;;3.13;;
9128;SDS011;4599;50.906;6.786;2023-11-19T16:12:56;14.37;;;2.90;;
9128;SDS011;4599;50.906;6.786;2023-11-19T16:16:59;10.47;;;2.77;;
9128;SDS011;4599;50.906;6.786;2023-11-19T16:21:01;18.00;;;3.80;;
9128;SDS011;4599;50.906;6.786;2023-11-19T16:25:02;16.00;;;2.87;;
9128;SDS011;4599;50.906;6.786;2023-11-19T16:29:04;16.67;;;3.13;;
9128;SDS011;4599;50.906;6.786;2023-11-19T16:33:07;14.40;;;3.33;;
9128;SDS011;4599;50.906;6.786;2023-11-19T16:37:21;18.90;;;3.53;;
9128;SDS011;4599;50.906;6.786;2023-11-19T16:41:23;15.57;;;3.20;;
9128;SDS011;4599;50.906;6.786;2023-11-19T16:45:40;12.13;;;3.03;;
9128;SDS011;4599;50.906;6.786;2023-11-19T16:49:43;15.83;;;3.20;;
9128;SDS011;4599;50.906;6.786;2023-11-19T16:53:45;17.57;;;3.10;;
9128;SDS011;4599;50.906;6.786;2023-11-19T16:57:46;17.53;;;3.20;;
9128;SDS011;4599;50.906;6.786;2023-11-19T17:01:48;15.33;;;3.30;;
9128;SDS011;4599;50.906;6.786;2023-11-19T17:05:51;14.43;;;2.83;;
9128;SDS011;4599;50.906;6.786;2023-11-19T17:09:52;12.70;;;3.07;;
9128;SDS011;4599;50.906;6.786;2023-11-19T17:13:53;15.50;;;3.20;;
9128;SDS011;4599;50.906;6.786;2023-11-19T17:17:55;11.53;;;2.67;;
9128;SDS011;4599;50.906;6.786;2023-11-19T17:21:58;16.03;;;3.00;;
9128;SDS011;4599;50.906;6.786;2023-11-19T17:25:59;15.07;;;3.10;;
9128;SDS011;4599;50.906;6.786;2023-11-19T17:30:01;17.63;;;3.53;;
9128;SDS011;4599;50.906;6.786;2023-11-19T17:34:03;15.73;;;3.43;;
9128;SDS011;4599;50.906;6.786;2023-11-19T17:38:06;9.73;;;2.90;;
9128;SDS011;4599;50.906;6.786;2023-11-19T17:42:27;12.40;;;3.47;;
9128;SDS011;4599;50.906;6.786;2023-11-19T17:46:28;12.93;;;3.00;;
9128;SDS011;4599;50.906;6.786;2023-11-19T17:50:30;10.77;;;2.67;;
9128;SDS011;4599;50.906;6.786;2023-11-19T17:54:33;15.20;;;3.07;;
9128;SDS011;4599;50.906;6.786;2023-11-19T17:58:37;17.27;;;3.10;;
9128;SDS011;4599;50.906;6.786;2023-11-19T18:02:38;15.57;;;3.10;;
9128;SDS011;4599;50.906;6.786;2023-11-19T18:06:43;15.80;;;3.03;;
9128;SDS011;4599;50.906;6.786;2023-11-19T18:10:46;12.17;;;3.13;;
9128;SDS011;4599;50.906;6.786;2023-11-19T18:14:49;15.60;;;3.07;;
9128;SDS011;4599;50.906;6.786;2023-11-19T18:18:54;11.77;;;2.33;;
9128;SDS011;4599;50.906;6.786;2023-11-19T18:22:55;13.90;;;3.20;;
9128;SDS011;4599;50.906;6.786;2023-11-19T18:26:58;12.83;;;3.00;;
9128;SDS011;4599;50.906;6.786;2023-11-19T18:31:00;12.07;;;2.93;;
9128;SDS011;4599;50.906;6.786;2023-11-19T18:35:01;9.63;;;2.50;;
9128;SDS011;4599;50.906;6.786;2023-11-19T18:39:03;14.77;;;2.50;;
9128;SDS011;4599;50.906;6.786;2023-11-19T18:43:06;11.47;;;2.63;;
9128;SDS011;4599;50.906;6.786;2023-11-19T18:47:08;13.07;;;2.70;;
9128;SDS011;4599;50.906;6.786;2023-11-19T18:51:10;17.70;;;3.10;;
9128;SDS011;4599;50.906;6.786;2023-11-19T18:55:12;11.73;;;2.57;;
9128;SDS011;4599;50.906;6.786;2023-11-19T18:59:15;18.07;;;3.30;;
9128;SDS011;4599;50.906;6.786;2023-11-19T19:03:16;14.70;;;2.93;;
9128;SDS011;4599;50.906;6.786;2023-11-19T19:07:18;12.40;;;2.90;;
9128;SDS011;4599;50.906;6.786;2023-11-19T19:11:21;11.50;;;2.50;;
9128;SDS011;4599;50.906;6.786;2023-11-19T19:15:24;11.07;;;2.77;;
9128;SDS011;4599;50.906;6.786;2023-11-19T19:19:26;10.30;;;2.60;;
9128;SDS011;4599;50.906;6.786;2023-11-19T19:23:28;9.40;;;2.37;;
9128;SDS011;4599;50.906;6.786;2023-11-19T19:27:29;7.70;;;2.17;;
9128;SDS011;4599;50.906;6.786;2023-11-19T19:31:32;13.17;;;2.50;;
9128;SDS011;4599;50.906;6.786;2023-11-19T19:35:34;12.53;;;2.57;;
9128;SDS011;4599;50.906;6.786;2023-11-19T19:39:36;11.43;;;2.43;;
9128;SDS011;4599;50.906;6.786;2023-11-19T19:43:37;9.70;;;2.33;;
9128;SDS011;4599;50.906;6.786;2023-11-19T19:47:41;12.50;;;2.37;;
9128;SDS011;4599;50.906;6.786;2023-11-19T19:51:43;11.13;;;2.40;;
9128;SDS011;4599;50.906;6.786;2023-11-19T19:55:44;12.30;;;2.50;;
9128;SDS011;4599;50.906;6.786;2023-11-19T19:59:46;10.53;;;2.17;;
9128;SDS011;4599;50.906;6.786;2023-11-19T20:03:49;13.50;;;2.70;;
9128;SDS011;4599;50.906;6.786;2023-11-19T20:07:51;15.37;;;2.87;;
9128;SDS011;4599;50.906;6.786;2023-11-19T20:11:52;9.60;;;2.30;;
9128;SDS011;4599;50.906;6.786;2023-11-19T20:15:53;14.80;;;3.23;;
9128;SDS011;4599;50.906;6.786;2023-11-19T20:19:56;12.83;;;2.53;;
9128;SDS011;4599;50.906;6.786;2023-11-19T20:23:58;12.93;;;2.30;;
9128;SDS011;4599;50.906;6.786;2023-11-19T20:28:00;9.87;;;2.37;;
9128;SDS011;4599;50.906;6.786;2023-11-19T20:32:01;10.40;;;2.20;;
9128;SDS011;4599;50.906;6.786;2023-11-19T20:36:05;8.30;;;2.10;;
9128;SDS011;4599;50.906;6.786;2023-11-19T20:40:08;11.70;;;2.70;;
9128;SDS011;4599;50.906;6.786;2023-11-19T20:44:10;11.23;;;2.73;;
9128;SDS011;4599;50.906;6.786;2023-11-19T20:48:12;13.97;;;2.97;;
9128;SDS011;4599;50.906;6.786;2023-11-19T20:52:14;13.30;;;2.67;;
9128;SDS011;4599;50.906;6.786;2023-11-19T20:56:16;8.63;;;2.17;;
9128;SDS011;4599;50.906;6.786;2023-11-19T21:00:18;11.33;;;2.20;;
9128;SDS011;4599;50.906;6.786;2023-11-19T21:04:20;9.77;;;2.20;;
9128;SDS011;4599;50.906;6.786;2023-11-19T21:08:23;8.70;;;1.87;;
9128;SDS011;4599;50.906;6.786;2023-11-19T21:12:24;8.90;;;2.30;;
9128;SDS011;4599;50.906;6.786;2023-11-19T21:16:26;11.53;;;2.20;;
9128;SDS011;4599;50.906;6.786;2023-11-19T21:20:27;9.03;;;1.93;;
9128;SDS011;4599;50.906;6.786;2023-11-19T21:24:31;9.23;;;2.00;;
9128;SDS011;4599;50.906;6.786;2023-11-19T21:28:32;8.37;;;2.10;;
9128;SDS011;4599;50.906;6.786;2023-11-19T21:32:34;9.30;;;2.30;;
9128;SDS011;4599;50.906;6.786;2023-11-19T21:36:35;9.80;;;1.90;;
9128;SDS011;4599;50.906;6.786;2023-11-19T21:40:38;7.47;;;1.60;;
9128;SDS011;4599;50.906;6.786;2023-11-19T21:44:40;9.00;;;2.63;;
9128;SDS011;4599;50.906;6.786;2023-11-19T21:48:41;9.37;;;2.03;;
9128;SDS011;4599;50.906;6.786;2023-11-19T21:52:43;7.83;;;2.00;;
9128;SDS011;4599;50.906;6.786;2023-11-19T21:56:46;6.17;;;1.83;;
9128;SDS011;4599;50.906;6.786;2023-11-19T22:00:47;7.20;;;1.90;;
9128;SDS011;4599;50.906;6.786;2023-11-19T22:04:49;7.47;;;1.80;;
9128;SDS011;4599;50.906;6.786;2023-11-19T22:08:50;7.87;;;1.67;;
9128;SDS011;4599;50.906;6.786;2023-11-19T22:12:53;4.90;;;1.50;;
9128;SDS011;4599;50.906;6.786;2023-11-19T22:16:55;5.23;;;1.30;;
9128;SDS011;4599;50.906;6.786;2023-11-19T22:20:56;4.13;;;1.30;;
9128;SDS011;4599;50.906;6.786;2023-11-19T22:24:58;7.27;;;1.80;;
9128;SDS011;4599;50.906;6.786;2023-11-19T22:29:00;4.60;;;1.30;;
9128;SDS011;4599;50.906;6.786;2023-11-19T22:33:02;5.60;;;1.60;;
9128;SDS011;4599;50.906;6.786;2023-11-19T22:37:04;5.30;;;1.20;;
9128;SDS011;4599;50.906;6.786;2023-11-19T22:41:06;5.00;;;1.30;;
9128;SDS011;4599;50.906;6.786;2023-11-19T22:45:10;5.93;;;1.63;;
9128;SDS011;4599;50.906;6.786;2023-11-19T22:49:12;7.47;;;1.57;;
9128;SDS011;4599;50.906;6.786;2023-11-19T22:53:13;4.33;;;1.27;;
9128;SDS011;4599;50.906;6.786;2023-11-19T22:57:15;4.77;;;1.13;;
9128;SDS011;4599;50.906;6.786;2023-11-19T23:01:18;5.40;;;1.17;;
9128;SDS011;4599;50.906;6.786;2023-11-19T23:05:20;4.33;;;1.20;;
9128;SDS011;4599;50.906;6.786;2023-11-19T23:09:22;3.87;;;1.50;;
9128;SDS011;4599;50.906;6.786;2023-11-19T23:13:24;5.57;;;1.40;;
9128;SDS011;4599;50.906;6.786;2023-11-19T23:17:27;4.47;;;1.30;;
9128;SDS011;4599;50.906;6.786;2023-11-19T23:21:28;6.07;;;1.47;;
9128;SDS011;4599;50.906;6.786;2023-11-19T23:25:30;4.03;;;1.10;;
9128;SDS011;4599;50.906;6.786;2023-11-19T23:29:31;8.73;;;1.70;;
9128;SDS011;4599;50.906;6.786;2023-11-19T23:33:34;4.80;;;1.40;;
9128;SDS011;4599;50.906;6.786;2023-11-19T23:37:36;6.83;;;1.73;;
9128;SDS011;4599;50.906;6.786;2023-11-19T23:41:38;10.37;;;2.33;;
9128;SDS011;4599;50.906;6.786;2023-11-19T23:45:40;6.60;;;1.60;;
9128;SDS011;4599;50.906;6.786;2023-11-19T23:49:43;13.27;;;1.80;;
9128;SDS011;4599;50.906;6.786;2023-11-19T23:53:45;7.23;;;1.63;;
9128;SDS011;4599;50.906;6.786;2023-11-19T23:57:46;6.63;;;1.60;;
